AirNav   Air Wisconsin Up To $57,000 Bonus
 
 1213 users online  

KIUA
(formerly D38)
Canandaigua Airport
Canandaigua, New York, USA

GOING TO CANANDAIGUA?


FAA INFORMATION EFFECTIVE 07 NOVEMBER 2019

Location

FAA Identifier: IUA
Lat/Long: 42-54-32.0468N 077-19-30.8146W
42-54.534113N 077-19.513577W
42.9089019,-77.3252263
(estimated)
Elevation: 813.6 ft. / 248.0 m (surveyed)
Variation: 12W (2000)
From city: 3 miles NW of CANANDAIGUA, NY
Time zone: UTC -5 (UTC -4 during Daylight Saving Time)
Zip code: 14424

Airport Operations

Airport use: Open to the public
Activation date: 04/1948
Control tower: no
ARTCC: CLEVELAND CENTER
FSS: BUFFALO FLIGHT SERVICE STATION
NOTAMs facility: BUF (NOTAM-D service available)
Attendance: CONTINUOUS
7AM-5PM DLY, CALL FBO FOR AFT HRS SVC.
Wind indicator: lighted
Segmented circle: yes
Lights: ACTVT MIRL RWY 13/31 - CTAF.
Beacon: white-green (lighted land airport)
Operates sunset to sunrise.

Airport Communications

CTAF/UNICOM: 122.8
WX AWOS-3P: 118.675 (585-396-5861)
ROCHESTER APPROACH: 119.55
ROCHESTER DEPARTURE: 119.55
WX ASOS at ROC (20 nm NW): 124.825 (585-235-7322)

Nearby radio navigation aids

VOR radial/distance  VOR name  Freq  Var
GEEr085/18.5GENESEO VOR/DME108.2009W
ROCr141/19.7ROCHESTER VOR/DME110.0012W

 
NDB name  Hdg/Dist  Freq  Var  ID
PENN YAN335/19.826012WPYA .--. -.-- .-

Airport Services

Fuel available: 100LL JET-A+
Parking: hangars and tiedowns
Airframe service: MAJOR
Powerplant service: MAJOR
Bottled oxygen: NONE
Bulk oxygen: NONE

Runway Information

Runway 13/31

Dimensions: 5500 x 100 ft. / 1676 x 30 m
Surface: asphalt/grooved, in good condition
Weight bearing capacity: 
PCN 39 /F/D/X/T
Runway edge lights: medium intensity
RUNWAY 13  RUNWAY 31
Latitude: 42-54.780987N42-54.287240N
Longitude: 077-20.029750W077-18.997403W
Elevation: 788.6 ft.811.9 ft.
Traffic pattern: leftleft
Runway heading: 135 magnetic, 123 true315 magnetic, 303 true
Markings: nonprecision, in good conditionnonprecision, in good condition
Visual slope indicator: 2-light PAPI on left (3.00 degrees glide path)2-light PAPI on left (3.00 degrees glide path)
Runway end identifier lights: yesyes
Touchdown point: yes, no lightsyes, no lights
Obstructions: 7 ft. fence, 353 ft. from runway, 8 ft. right of centerline, 21:1 slope to clear38 ft. tree, 1069 ft. from runway, 131 ft. right of centerline, 22:1 slope to clear
9 FT BUSH AND FENCE 176 FT FM THR, 243 FT LEFT.

Airport Ownership and Management from official FAA records

Ownership: Publicly-owned
Owner: ONTARIO COUNTY IDA
20 ONTARIO ST
CANANDAIGUA, NY 14425
Phone 585-396-4460
Manager: BOB MINCER
2450 BRICKYARD ROAD
CANANDAIGUA, NY 14424
Phone 585-919-2772

Airport Operational Statistics

Aircraft based on the field: 47
Single engine airplanes: 42
Multi engine airplanes: 2
Ultralights: 3
    
Aircraft operations: avg 59/day *
48% transient general aviation
48% local general aviation
5% air taxi
* for 12-month period ending 28 July 2017

Additional Remarks

FOR SVCS AND ARPT CONDS CALL 585-394-4780.
FQT MEDIVAC HEL OPNS: MNT CTAF.
FOR CD CTC CLEVELAND ARTCC AT 440-774-0490.

Instrument Procedures

NOTE: All procedures below are presented as PDF files. If you need a reader for these files, you should download the free Adobe Reader.

NOT FOR NAVIGATION. Please procure official charts for flight.
FAA instrument procedures published for use from 07 November 2019 at 0901Z to 05 December 2019 at 0900Z.

 
IAPs - Instrument Approach Procedures
RNAV (GPS) RWY 13 **CHANGED**   download (242KB)
RNAV (GPS) RWY 31   download (242KB)
VOR-A   download (182KB)
NOTE: Special Take-Off Minimums/Departure Procedures apply   download (291KB)

Other nearby airports with instrument procedures:

KROC - Greater Rochester International Airport (20 nm NW)
KPEO - Penn Yan Airport (20 nm SE)
KSDC - Williamson-Sodus Airport (22 nm NE)
0G7 - Finger Lakes Regional Airport (24 nm E)
KDSV - Dansville Municipal Airport (27 nm SW)
 
Loc | Ops | Rwys | IFR | FBO | Links
Com | Nav | Svcs | Stats | Notes
Area around KIUA (Canandaigua Airport)
 
Road maps at: MapQuest Bing Google
 
Aerial photo
WARNING: Photo may not be current or correct
Aerial photo of KIUA (Canandaigua Airport)
Photo by Bob Dunbar
Photo taken 18-Apr-2015
looking northwest.

Do you have a better or more recent aerial photo of Canandaigua Airport that you would like to share? If so, please send us your photo.

 
Sectional chart

 
Airport distance calculator
Flying to Canandaigua Airport? Find the distance to fly.

From to KIUA

Sunrise and sunset
Times for 15-Nov-2019
 Local
(UTC-5)
 Zulu
(UTC)
Morning civil twilight06:3211:32
Sunrise07:0212:02
Sunset16:4521:45
Evening civil twilight17:1622:16

Current date and time
Zulu (UTC)  15-Nov-2019 19:32:50
Local (UTC-5)  15-Nov-2019 14:32:50
 
METAR
KPEO 
20nm SE 
151853Z AUTO 25013G20KT 7SM OVC022 03/M02 A3015 RMK AO2 SLP219 T00331017
KROC 
20nm NW 
151854Z 28017G22KT 10SM BKN034 02/M03 A3017 RMK AO2 SLP226 T00171028
KSDC 
22nm NE 
151915Z AUTO 25010G15KT 10SM OVC049 03/M03 A3017 RMK AO2
KDSV 
27nm SW 
151854Z AUTO VRB05KT 9SM OVC022 03/M01 A3018 RMK AO2 SLP236 T00331011
KGVQ 
38nm W 
151856Z AUTO 27011G17KT 10SM OVC028 01/M03 A3016 RMK AO2 SLP225 P0001 T00111028 FZRANO
K6B9 
39nm E 
151915Z AUTO 27009G17KT 240V300 9SM OVC017 02/M01 A3014 RMK AO2
TAF
KROC 
20nm NW 
151730Z 1518/1618 26013G27KT P6SM BKN025 OVC035 FM151900 26013G25KT P6SM SCT080 FM152300 27010KT P6SM BKN025 FM160400 35011KT P6SM SCT070 FM160900 05008KT P6SM BKN090
NOTAMs
Click for the latest NOTAMs
NOTAMs are issued by the DoD/FAA and will open in a separate window not controlled by AirNav.

 

 
 

FBO, Fuel Providers, and Aircraft Ground Support

  
 Business Name 
 
 Contact 
 
 Services / Description 
 
Fuel Prices
 
Comments
  
MFC Aviation Services 585-394-4780
585-396-0584
[email]
Aviation fuel, Aircraft ground handling, Oxygen service, Aircraft parking (ramp or tiedown), Hangars, Hangar leasing / sales, GPU / Power cart, ...

More info about MFC Aviation Services
Phillips 66
100LL Jet A
FS --- $4.56 
SS $5.29 --- 
 Updated 06-Nov-2019
 
   1 read write
FS=Full service
SS=Self service
Update Fuel Prices
 

Would you like to see your business listed on this page?

 If your business provides an interesting product or service to pilots, flight crews, aircraft, or users of the Canandaigua Airport, you should consider listing it here.  To start the listing process, click on the button below
 
Add a business
 

Other Pages about Canandaigua Airport

www.canandaiguaairport.com
 
Update a link
 
Copyright © AirNav, LLC. All rights reserved. Privacy Policy  Contact